createdAt,value
2024-04-21T00:00:15.183Z,8.60
2024-04-21T00:03:03.367Z,7.80
2024-04-21T00:05:31.756Z,7.20
2024-04-21T00:08:00.225Z,6.90
2024-04-21T00:10:29.211Z,9.90
2024-04-21T00:12:57.468Z,6.30
2024-04-21T00:15:25.713Z,7.10
2024-04-21T00:17:53.913Z,7.60
2024-04-21T00:20:22.001Z,9.00
2024-04-21T00:22:50.953Z,8.10
2024-04-21T00:25:18.995Z,7.00
2024-04-21T00:27:47.164Z,7.80
2024-04-21T00:30:15.374Z,6.70
2024-04-21T00:32:43.818Z,8.80
2024-04-21T00:35:11.878Z,8.20
2024-04-21T00:37:39.963Z,5.80
2024-04-21T00:40:08.614Z,8.70
2024-04-21T00:42:36.731Z,6.50
2024-04-21T00:45:05.241Z,8.00
2024-04-21T00:47:34.488Z,7.50
2024-04-21T00:50:02.810Z,7.10
2024-04-21T00:52:31.451Z,8.00
2024-04-21T00:54:59.539Z,6.60
2024-04-21T00:57:27.747Z,7.40
2024-04-21T00:59:55.798Z,7.20
2024-04-21T01:02:23.956Z,6.60
2024-04-21T01:04:53.060Z,6.90
2024-04-21T01:07:21.359Z,7.10
2024-04-21T01:09:49.547Z,6.90
2024-04-21T01:12:17.653Z,7.50
2024-04-21T01:14:45.976Z,6.40
2024-04-21T01:17:14.131Z,6.70
2024-04-21T01:19:42.185Z,6.10
2024-04-21T01:22:10.208Z,7.70
2024-04-21T01:24:38.266Z,7.70
2024-04-21T01:27:06.698Z,6.70
2024-04-21T01:29:34.884Z,6.80
2024-04-21T01:32:02.993Z,7.10
2024-04-21T01:34:31.060Z,6.20
2024-04-21T01:36:59.148Z,6.60
2024-04-21T01:39:27.317Z,8.80
2024-04-21T01:41:55.357Z,7.00
2024-04-21T01:44:23.445Z,6.80
2024-04-21T01:46:51.606Z,9.90
2024-04-21T01:49:21.688Z,6.90
2024-04-21T01:51:49.841Z,5.50
2024-04-21T01:54:17.934Z,6.20
2024-04-21T01:56:45.992Z,7.10
2024-04-21T01:59:14.110Z,7.40
2024-04-21T02:01:42.292Z,4.90
2024-04-21T02:04:10.656Z,5.90
2024-04-21T02:06:38.836Z,6.00
2024-04-21T02:09:07.343Z,6.20
2024-04-21T02:11:35.452Z,5.70
2024-04-21T02:14:03.577Z,6.70
2024-04-21T02:16:31.725Z,5.60
2024-04-21T02:18:59.764Z,5.30
2024-04-21T02:21:27.864Z,6.00
2024-04-21T02:23:56.115Z,5.40
2024-04-21T02:26:24.312Z,7.60
2024-04-21T02:28:52.365Z,5.40
2024-04-21T02:31:20.534Z,6.60
2024-04-21T02:33:48.704Z,6.70
2024-04-21T02:36:18.157Z,6.80
2024-04-21T02:38:46.314Z,5.60
2024-04-21T02:41:14.371Z,5.40
2024-04-21T02:43:42.495Z,5.90
2024-04-21T02:46:11.677Z,8.40
2024-04-21T02:48:39.900Z,8.20
2024-04-21T02:51:08.018Z,6.50
2024-04-21T02:53:36.049Z,11.30
2024-04-21T02:56:04.487Z,6.90
2024-04-21T02:58:32.631Z,7.70
2024-04-21T03:01:05.545Z,6.10
2024-04-21T03:03:33.751Z,6.70
2024-04-21T03:06:01.868Z,8.90
2024-04-21T03:08:29.979Z,6.00
2024-04-21T03:10:58.063Z,6.00
2024-04-21T03:13:27.954Z,6.40
2024-04-21T03:15:56.208Z,6.30
2024-04-21T03:18:24.285Z,8.10
2024-04-21T03:20:57.135Z,6.80
2024-04-21T03:25:53.775Z,8.80
2024-04-21T03:28:22.212Z,7.40
2024-04-21T03:31:01.108Z,6.30
2024-04-21T03:33:29.639Z,9.30
2024-04-21T03:36:06.131Z,7.60
2024-04-21T03:38:35.938Z,6.50
2024-04-21T03:41:05.439Z,7.40
2024-04-21T03:43:33.838Z,6.60
2024-04-21T03:46:01.951Z,6.20
2024-04-21T03:48:30.036Z,6.90
2024-04-21T03:50:58.099Z,7.60
2024-04-21T03:53:26.190Z,7.20
2024-04-21T03:55:54.327Z,7.40
2024-04-21T03:58:22.517Z,7.10
2024-04-21T04:00:50.784Z,6.80
2024-04-21T04:03:19.069Z,7.80
2024-04-21T04:05:47.615Z,8.30
2024-04-21T04:08:16.771Z,8.00
2024-04-21T04:10:45.705Z,7.40
2024-04-21T04:13:13.885Z,8.00
2024-04-21T04:15:41.950Z,6.30
2024-04-21T04:18:10.505Z,7.20
2024-04-21T04:20:38.933Z,7.20
2024-04-21T04:23:07.187Z,10.20
2024-04-21T04:25:35.275Z,8.70
2024-04-21T04:28:03.764Z,7.60
2024-04-21T04:30:31.909Z,10.30
2024-04-21T04:33:00.214Z,6.80
2024-04-21T04:35:28.574Z,9.00
2024-04-21T04:37:56.693Z,7.90
2024-04-21T04:40:24.848Z,6.70
2024-04-21T04:42:53.064Z,10.60
2024-04-21T04:45:21.779Z,7.70
2024-04-21T04:47:49.997Z,8.00
2024-04-21T04:50:18.160Z,7.50
2024-04-21T04:52:46.252Z,7.70
2024-04-21T04:55:15.782Z,9.00
2024-04-21T04:57:43.830Z,9.00
2024-04-21T05:00:12.433Z,10.00
2024-04-21T05:02:40.547Z,9.00
2024-04-21T05:05:08.641Z,9.10
2024-04-21T05:07:36.771Z,8.00
2024-04-21T05:10:05.395Z,7.50
2024-04-21T05:12:33.521Z,9.80
2024-04-21T05:15:01.707Z,9.20
2024-04-21T05:17:29.829Z,6.70
2024-04-21T05:19:58.015Z,7.30
2024-04-21T05:22:26.261Z,7.40
2024-04-21T05:24:54.471Z,7.70
2024-04-21T05:27:22.622Z,8.00
2024-04-21T05:29:54.923Z,7.20
2024-04-21T05:32:23.176Z,6.60
2024-04-21T05:34:51.421Z,7.40
2024-04-21T05:37:19.717Z,7.80
2024-04-21T05:39:47.962Z,6.80
2024-04-21T05:42:16.367Z,6.60
2024-04-21T05:44:44.915Z,6.50
2024-04-21T05:47:13.045Z,6.30
2024-04-21T05:49:41.165Z,7.10
2024-04-21T05:52:09.384Z,6.90
2024-04-21T05:54:37.486Z,8.40
2024-04-21T05:57:05.752Z,7.00
2024-04-21T05:59:33.873Z,6.50
2024-04-21T06:02:01.934Z,6.00
2024-04-21T06:04:33.135Z,6.50
2024-04-21T06:07:01.431Z,6.40
2024-04-21T06:09:29.487Z,5.90
2024-04-21T06:11:57.557Z,7.70
2024-04-21T06:14:25.676Z,9.10
2024-04-21T06:16:53.842Z,11.50
2024-04-21T06:19:22.096Z,7.10
2024-04-21T06:21:50.294Z,7.50
2024-04-21T06:24:18.428Z,7.00
2024-04-21T06:26:49.948Z,7.70
2024-04-21T06:29:18.418Z,9.80
2024-04-21T06:31:46.611Z,8.30
2024-04-21T06:34:15.044Z,9.00
2024-04-21T06:36:43.174Z,8.20
2024-04-21T06:39:11.271Z,7.10
2024-04-21T06:41:39.397Z,6.70
2024-04-21T06:44:07.507Z,7.50
2024-04-21T06:46:35.542Z,5.60
2024-04-21T06:49:03.811Z,7.10
2024-04-21T06:51:31.903Z,6.00
2024-04-21T06:53:59.960Z,7.30
2024-04-21T06:56:28.128Z,5.90
2024-04-21T06:58:56.319Z,8.80
2024-04-21T07:01:24.492Z,6.00
2024-04-21T07:03:52.850Z,6.30
2024-04-21T07:06:21.116Z,6.00
2024-04-21T07:08:49.152Z,6.60
2024-04-21T07:11:17.258Z,5.80
2024-04-21T07:13:45.378Z,6.30
2024-04-21T07:16:13.484Z,5.40
2024-04-21T07:18:41.760Z,7.10
2024-04-21T07:21:09.867Z,6.40
2024-04-21T07:23:38.516Z,6.50
2024-04-21T07:26:06.554Z,7.70
2024-04-21T07:28:34.669Z,5.70
2024-04-21T07:31:03.208Z,5.50
2024-04-21T07:33:31.282Z,6.30
2024-04-21T07:35:59.467Z,5.70
2024-04-21T07:38:27.521Z,5.80
2024-04-21T07:40:55.585Z,4.30
2024-04-21T07:43:24.159Z,5.80
2024-04-21T07:45:52.256Z,5.90
2024-04-21T07:48:20.476Z,5.60
2024-04-21T07:50:48.844Z,4.50
2024-04-21T07:53:16.923Z,7.10
2024-04-21T07:55:44.992Z,5.00
2024-04-21T07:58:13.129Z,5.60
2024-04-21T08:00:41.235Z,4.60
2024-04-21T08:03:09.394Z,6.10
2024-04-21T08:05:37.519Z,7.10
2024-04-21T08:08:05.826Z,8.40
2024-04-21T08:10:42.536Z,7.60
2024-04-21T08:13:15.764Z,6.80
2024-04-21T08:15:43.845Z,7.00
2024-04-21T08:18:12.040Z,5.90
2024-04-21T08:20:40.145Z,6.40
2024-04-21T08:23:08.201Z,6.60
2024-04-21T08:25:37.096Z,5.80
2024-04-21T08:28:05.295Z,5.50
2024-04-21T08:30:33.439Z,5.80
2024-04-21T08:33:01.638Z,5.20
2024-04-21T08:35:30.308Z,5.20
2024-04-21T08:37:58.442Z,5.60
2024-04-21T08:40:26.559Z,4.40
2024-04-21T08:43:02.183Z,6.00
2024-04-21T08:45:30.673Z,4.00
2024-04-21T08:47:58.908Z,5.50
2024-04-21T08:50:28.065Z,4.70
2024-04-21T08:52:56.635Z,4.60
2024-04-21T08:55:27.937Z,6.20
2024-04-21T08:57:56.201Z,4.30
2024-04-21T09:00:24.395Z,4.70
2024-04-21T09:02:52.796Z,3.60
2024-04-21T09:05:21.423Z,3.40
2024-04-21T09:07:59.616Z,19.10
2024-04-21T09:10:28.011Z,6.00
2024-04-21T09:12:56.145Z,5.20
2024-04-21T09:15:24.318Z,4.40
2024-04-21T09:17:52.627Z,4.20
2024-04-21T09:20:20.987Z,4.30
2024-04-21T09:22:49.122Z,3.40
2024-04-21T09:25:18.780Z,3.70
2024-04-21T09:27:50.153Z,3.90
2024-04-21T09:30:19.952Z,3.80
2024-04-21T09:32:48.800Z,3.70
2024-04-21T09:35:18.810Z,3.80
2024-04-21T09:37:47.244Z,3.10
2024-04-21T09:40:16.254Z,4.30
2024-04-21T09:42:47.174Z,3.90
2024-04-21T09:45:17.904Z,4.30
2024-04-21T09:47:48.154Z,4.00
2024-04-21T09:50:17.358Z,3.30
2024-04-21T09:52:50.847Z,4.00
2024-04-21T09:55:26.209Z,4.00
2024-04-21T09:58:02.685Z,3.80
2024-04-21T10:00:32.635Z,3.90
2024-04-21T10:03:06.073Z,5.70
2024-04-21T10:05:35.886Z,4.30
2024-04-21T10:08:07.244Z,3.60
2024-04-21T10:10:39.827Z,4.70
2024-04-21T10:13:08.728Z,4.30
2024-04-21T10:15:37.984Z,4.90
2024-04-21T10:18:06.222Z,3.40
2024-04-21T10:20:38.911Z,8.10
2024-04-21T10:23:11.599Z,4.00
2024-04-21T10:25:46.243Z,3.70
2024-04-21T10:28:25.615Z,6.40
2024-04-21T10:31:07.732Z,3.30
2024-04-21T10:33:40.153Z,3.60
2024-04-21T10:38:54.328Z,6.00
2024-04-21T10:41:23.480Z,3.70
2024-04-21T10:43:55.117Z,3.70
2024-04-21T10:48:52.117Z,3.50
2024-04-21T10:51:20.212Z,2.70
2024-04-21T10:53:49.474Z,3.80
2024-04-21T10:56:17.671Z,3.90
2024-04-21T10:58:49.888Z,2.50
2024-04-21T11:01:18.298Z,3.20
2024-04-21T11:03:46.503Z,3.50
2024-04-21T11:06:14.750Z,3.90
2024-04-21T11:08:44.052Z,2.60
2024-04-21T11:11:13.201Z,2.60
2024-04-21T11:13:41.432Z,2.20
2024-04-21T11:16:13.698Z,2.60
2024-04-21T11:21:10.270Z,3.50
2024-04-21T11:23:40.522Z,6.30
2024-04-21T11:26:09.359Z,3.10
2024-04-21T11:28:37.446Z,3.00
2024-04-21T11:31:07.089Z,3.00
2024-04-21T11:33:36.936Z,3.10
2024-04-21T11:36:13.834Z,3.00
2024-04-21T11:38:41.909Z,3.50
2024-04-21T11:41:13.083Z,2.20
2024-04-21T11:43:44.861Z,2.00
2024-04-21T11:46:12.866Z,2.30
2024-04-21T11:48:41.038Z,2.10
2024-04-21T11:51:09.212Z,1.80
2024-04-21T11:53:37.205Z,2.50
2024-04-21T11:56:05.604Z,3.20
2024-04-21T11:58:35.549Z,3.20
2024-04-21T12:01:05.030Z,2.00
2024-04-21T12:03:34.081Z,3.10
2024-04-21T12:06:02.216Z,1.80
2024-04-21T12:08:30.206Z,2.00
2024-04-21T12:10:58.336Z,2.60
2024-04-21T12:13:26.475Z,1.80
2024-04-21T12:15:54.551Z,5.00
2024-04-21T12:18:23.815Z,4.60
2024-04-21T12:20:51.840Z,2.00
2024-04-21T12:23:19.867Z,3.10
2024-04-21T12:25:47.826Z,2.60
2024-04-21T12:28:15.787Z,1.90
2024-04-21T12:30:44.520Z,3.10
2024-04-21T12:33:12.872Z,2.30
2024-04-21T12:35:40.910Z,3.30
2024-04-21T12:38:08.875Z,3.00
2024-04-21T12:40:36.989Z,4.20
2024-04-21T12:43:05.038Z,2.70
2024-04-21T12:45:35.951Z,5.20
2024-04-21T12:48:05.371Z,2.80
2024-04-21T12:50:33.808Z,3.20
2024-04-21T12:53:02.024Z,2.80
2024-04-21T12:55:30.426Z,2.50
2024-04-21T12:57:58.761Z,3.40
2024-04-21T13:00:27.007Z,3.80
2024-04-21T13:02:55.117Z,3.60
2024-04-21T13:05:23.433Z,5.60
2024-04-21T13:07:51.428Z,2.40
2024-04-21T13:10:19.611Z,3.50
2024-04-21T13:12:47.745Z,4.00
2024-04-21T13:15:15.756Z,5.30
2024-04-21T13:17:47.073Z,4.30
2024-04-21T13:20:15.802Z,3.60
2024-04-21T13:22:44.187Z,3.70
2024-04-21T13:25:14.703Z,3.90
2024-04-21T13:27:42.953Z,2.40
2024-04-21T13:30:11.331Z,3.80
2024-04-21T13:32:39.444Z,6.30
2024-04-21T13:35:08.090Z,3.10
2024-04-21T13:37:37.123Z,3.50
2024-04-21T13:40:06.999Z,2.30
2024-04-21T13:42:35.264Z,3.30
2024-04-21T13:45:03.384Z,4.00
2024-04-21T13:47:33.555Z,3.30
2024-04-21T13:50:02.131Z,2.80
2024-04-21T13:52:30.237Z,2.60
2024-04-21T13:54:59.374Z,5.00
2024-04-21T13:57:28.562Z,2.60
2024-04-21T13:59:57.302Z,2.20
2024-04-21T14:02:27.238Z,2.80
2024-04-21T14:04:55.318Z,3.30
2024-04-21T14:07:23.365Z,2.80
2024-04-21T14:09:51.403Z,3.10
2024-04-21T14:12:19.580Z,4.70
2024-04-21T14:14:48.619Z,2.30
2024-04-21T14:17:16.612Z,3.10
2024-04-21T14:19:44.702Z,3.00
2024-04-21T14:22:12.815Z,1.90
2024-04-21T14:24:40.758Z,3.70
2024-04-21T14:27:08.806Z,2.00
2024-04-21T14:29:40.551Z,3.40
2024-04-21T14:32:11.544Z,3.80
2024-04-21T14:34:39.554Z,2.70
2024-04-21T14:37:08.202Z,6.10
2024-04-21T14:39:36.486Z,2.60
2024-04-21T14:42:04.576Z,3.40
2024-04-21T14:44:38.467Z,3.80
2024-04-21T14:47:06.664Z,3.60
2024-04-21T14:49:34.766Z,2.60
2024-04-21T14:52:02.811Z,3.50
2024-04-21T14:54:31.162Z,2.40
2024-04-21T14:57:01.713Z,3.10
2024-04-21T14:59:29.711Z,2.70
2024-04-21T15:01:57.787Z,4.10
2024-04-21T15:04:25.789Z,5.00
2024-04-21T15:06:53.865Z,4.10
2024-04-21T15:09:21.849Z,3.10
2024-04-21T15:11:49.788Z,2.60
2024-04-21T15:14:17.804Z,2.30
2024-04-21T15:16:46.316Z,5.60
2024-04-21T15:19:14.505Z,2.40
2024-04-21T15:21:42.555Z,1.90
2024-04-21T15:24:10.551Z,2.00
2024-04-21T15:26:38.526Z,1.70
2024-04-21T15:29:06.494Z,1.60
2024-04-21T15:31:34.461Z,3.00
2024-04-21T15:34:02.561Z,1.90
2024-04-21T15:36:49.811Z,2.70
2024-04-21T15:39:17.848Z,3.60
2024-04-21T15:41:45.896Z,4.70
2024-04-21T15:44:14.181Z,1.80
2024-04-21T15:46:42.944Z,1.50
2024-04-21T15:49:10.993Z,3.60
2024-04-21T15:51:39.052Z,1.70
2024-04-21T15:54:08.756Z,2.90
2024-04-21T15:56:36.863Z,3.50
2024-04-21T15:59:04.835Z,2.70
2024-04-21T16:01:32.816Z,4.20
2024-04-21T16:04:01.212Z,1.90
2024-04-21T16:06:29.374Z,3.20
2024-04-21T16:08:57.372Z,2.50
2024-04-21T16:11:25.407Z,3.20
2024-04-21T16:13:53.385Z,2.60
2024-04-21T16:16:21.390Z,2.40
2024-04-21T16:18:49.492Z,2.50
2024-04-21T16:21:17.443Z,2.70
2024-04-21T16:23:45.466Z,2.40
2024-04-21T16:26:13.455Z,3.40
2024-04-21T16:28:41.528Z,2.20
2024-04-21T16:31:09.689Z,2.50
2024-04-21T16:33:38.046Z,2.50
2024-04-21T16:36:07.739Z,2.70
2024-04-21T16:38:36.684Z,1.90
2024-04-21T16:41:05.053Z,4.20
2024-04-21T16:43:35.195Z,3.30
2024-04-21T16:46:06.579Z,2.90
2024-04-21T16:48:34.931Z,3.20
2024-04-21T16:51:03.267Z,2.20
2024-04-21T16:53:31.668Z,2.40
2024-04-21T16:55:59.945Z,2.30
2024-04-21T16:58:32.678Z,4.70
2024-04-21T17:01:02.451Z,4.90
2024-04-21T17:03:31.117Z,3.70
2024-04-21T17:06:02.891Z,4.60
2024-04-21T17:08:37.469Z,3.70
2024-04-21T17:11:05.827Z,2.90
2024-04-21T17:13:34.572Z,8.00
2024-04-21T17:16:05.546Z,3.90
2024-04-21T17:18:36.269Z,4.70
2024-04-21T17:21:07.885Z,5.20
2024-04-21T17:23:36.092Z,6.70
2024-04-21T17:26:04.499Z,12.00
2024-04-21T17:28:32.604Z,8.90
2024-04-21T17:31:00.877Z,9.40
2024-04-21T17:33:29.049Z,9.80
2024-04-21T17:35:57.059Z,5.70
2024-04-21T17:38:25.413Z,7.70
2024-04-21T17:40:53.929Z,6.40
2024-04-21T17:43:22.015Z,7.80
2024-04-21T17:45:50.201Z,4.60
2024-04-21T17:48:18.254Z,10.00
2024-04-21T17:50:47.105Z,13.20
2024-04-21T17:53:15.081Z,16.40
2024-04-21T17:55:43.147Z,23.20
2024-04-21T17:58:11.357Z,21.50
2024-04-21T18:00:39.575Z,22.20
2024-04-21T18:03:07.652Z,18.50
2024-04-21T18:05:36.641Z,14.30
2024-04-21T18:08:05.141Z,50.30
2024-04-21T18:10:33.314Z,41.80
2024-04-21T18:13:01.593Z,18.10
2024-04-21T18:15:29.778Z,68.00
2024-04-21T18:17:58.188Z,16.00
2024-04-21T18:20:26.272Z,51.40
2024-04-21T18:22:54.513Z,49.70
2024-04-21T18:25:22.625Z,28.90
2024-04-21T18:27:50.607Z,28.50
2024-04-21T18:30:18.628Z,18.60
2024-04-21T18:32:46.862Z,13.40
2024-04-21T18:35:15.034Z,30.80
2024-04-21T18:37:43.332Z,25.30
2024-04-21T18:40:11.541Z,31.40
2024-04-21T18:42:39.560Z,192.10
2024-04-21T18:45:10.990Z,58.50
2024-04-21T18:47:39.147Z,21.90
2024-04-21T18:50:07.766Z,27.00
2024-04-21T18:52:37.618Z,37.90
2024-04-21T18:55:05.998Z,145.20
2024-04-21T18:57:34.067Z,95.20
2024-04-21T19:00:02.233Z,61.40
2024-04-21T19:02:30.444Z,94.50
2024-04-21T19:04:58.630Z,38.90
2024-04-21T19:07:26.884Z,51.80
2024-04-21T19:09:56.532Z,52.20
2024-04-21T19:12:25.205Z,28.40
2024-04-21T19:14:53.407Z,14.30
2024-04-21T19:17:21.771Z,13.10
2024-04-21T19:19:50.186Z,13.70
2024-04-21T19:22:18.758Z,13.50
2024-04-21T19:24:46.778Z,14.10
2024-04-21T19:27:16.575Z,23.40
2024-04-21T19:29:45.253Z,19.90
2024-04-21T19:32:14.479Z,25.90
2024-04-21T19:34:45.679Z,30.30
2024-04-21T19:37:14.832Z,17.00
2024-04-21T19:39:42.906Z,21.80
2024-04-21T19:42:10.983Z,45.30
2024-04-21T19:44:38.999Z,16.20
2024-04-21T19:47:07.193Z,13.80
2024-04-21T19:49:35.305Z,25.80
2024-04-21T19:52:05.079Z,18.80
2024-04-21T19:54:33.100Z,19.20
2024-04-21T19:57:02.125Z,16.80
2024-04-21T19:59:30.087Z,11.90
2024-04-21T20:01:58.401Z,21.10
2024-04-21T20:04:26.557Z,16.20
2024-04-21T20:06:54.552Z,16.10
2024-04-21T20:09:22.576Z,17.00
2024-04-21T20:11:50.548Z,16.00
2024-04-21T20:14:18.584Z,18.40
2024-04-21T20:17:09.666Z,19.10
2024-04-21T20:19:38.023Z,15.60
2024-04-21T20:22:07.380Z,13.00
2024-04-21T20:24:35.439Z,14.90
2024-04-21T20:27:03.576Z,17.00
2024-04-21T20:29:32.738Z,16.30
2024-04-21T20:32:00.763Z,15.90
2024-04-21T20:34:29.903Z,14.00
2024-04-21T20:36:58.310Z,12.70
2024-04-21T20:39:26.400Z,15.40
2024-04-21T20:41:54.352Z,23.80
2024-04-21T20:44:22.328Z,57.00
2024-04-21T20:46:50.548Z,41.90
2024-04-21T20:49:18.615Z,37.00
2024-04-21T20:51:46.751Z,29.40
2024-04-21T20:54:14.796Z,37.80
2024-04-21T20:56:42.762Z,28.60
2024-04-21T20:59:10.834Z,24.20
2024-04-21T21:01:38.928Z,22.70
2024-04-21T21:04:07.530Z,19.60
2024-04-21T21:06:35.508Z,14.70
2024-04-21T21:09:04.214Z,9.20
2024-04-21T21:11:32.279Z,7.20
2024-04-21T21:14:00.362Z,9.50
2024-04-21T21:16:28.762Z,10.90
2024-04-21T21:18:56.809Z,12.10
2024-04-21T21:21:24.814Z,9.00
2024-04-21T21:23:52.789Z,9.80
2024-04-21T21:26:21.045Z,8.70
2024-04-21T21:28:49.131Z,6.90
2024-04-21T21:31:17.164Z,6.90
2024-04-21T21:33:46.621Z,7.10
2024-04-21T21:36:14.973Z,5.80
2024-04-21T21:38:44.053Z,7.20
2024-04-21T21:41:12.492Z,5.80
2024-04-21T21:43:40.712Z,5.80
2024-04-21T21:46:08.772Z,6.00
2024-04-21T21:48:36.818Z,6.00
2024-04-21T21:51:05.164Z,7.00
2024-04-21T21:53:33.131Z,6.60
2024-04-21T21:56:01.115Z,7.00
2024-04-21T21:58:29.085Z,6.40
2024-04-21T22:00:57.108Z,6.80
2024-04-21T22:03:25.167Z,7.80
2024-04-21T22:05:53.342Z,6.80
2024-04-21T22:08:21.621Z,6.10
2024-04-21T22:10:50.274Z,6.10
2024-04-21T22:13:18.348Z,6.50
2024-04-21T22:15:47.354Z,12.20
2024-04-21T22:18:19.125Z,6.60
2024-04-21T22:20:47.412Z,7.10
2024-04-21T22:23:15.331Z,7.60
2024-04-21T22:25:46.741Z,7.30
2024-04-21T22:28:15.073Z,6.90
2024-04-21T22:30:43.637Z,9.70
2024-04-21T22:33:11.810Z,7.10
2024-04-21T22:35:40.609Z,7.10
2024-04-21T22:38:08.652Z,9.90
2024-04-21T22:40:36.767Z,6.10
2024-04-21T22:43:07.088Z,7.10
2024-04-21T22:45:35.136Z,9.00
2024-04-21T22:48:03.273Z,8.20
2024-04-21T22:50:31.307Z,8.60
2024-04-21T22:52:59.237Z,7.90
2024-04-21T22:55:27.297Z,8.30
2024-04-21T22:57:55.284Z,8.20
2024-04-21T23:00:23.296Z,7.30
2024-04-21T23:02:51.307Z,7.20
2024-04-21T23:05:19.257Z,6.60
2024-04-21T23:07:47.278Z,14.90
2024-04-21T23:10:15.239Z,8.00
2024-04-21T23:12:43.246Z,10.00
2024-04-21T23:15:11.204Z,7.30
2024-04-21T23:17:39.208Z,7.30
2024-04-21T23:20:07.825Z,17.60
2024-04-21T23:22:35.882Z,13.10
2024-04-21T23:25:04.032Z,7.20
2024-04-21T23:27:32.054Z,8.00
2024-04-21T23:29:59.987Z,9.50
2024-04-21T23:32:28.231Z,6.70
2024-04-21T23:34:58.576Z,6.80
2024-04-21T23:37:26.583Z,6.30
2024-04-21T23:39:54.635Z,8.00
2024-04-21T23:42:23.078Z,6.50
2024-04-21T23:44:51.099Z,11.90
2024-04-21T23:47:19.128Z,8.60
2024-04-21T23:49:47.109Z,6.50
2024-04-21T23:52:15.205Z,9.70
2024-04-21T23:54:43.206Z,6.30
2024-04-21T23:57:11.220Z,6.60
2024-04-21T23:59:39.153Z,6.80
